Aérodrome :
LOGIN :

S'inscrire | Disclaimer

   EN    FR    IT 

 










Légende :    VFR   VFR Marginal   IFR   IFR Intensif   IFR Très Intensif
Visi : 
Plafond : 
>= 8 km
>= 3000ft
5 à 8 km
1000 à 3000 ft
1500m à 5 km
500 à 1000 ft
800 à 1500m
200 à 500 ft
< 800m
< 200 ft
Symboles :   Orages  Brouillard  Fortes neiges  Fortes précipitations  Vent > 20 kt
SIGMETs :   Divers  Orages  Givrage  Turbulence  Onde Orograph.  Cendres Volcan.







- Altitude de l'aérodrome : 408 ft
- Code IATA : SOB


LHSM - Sarmellek Balaton

DERNIER METAR :
  • 191215Z 08003KT 9999 FEW050TCU 31/17 Q1019 NOSIG

METARs EXPIRÉS :
  • 191145Z 09003KT 9999 FEW043TCU 31/20 Q1019 NOSIG
  • 191115Z 07005KT 9999 FEW050TCU 30/17 Q1019 NOSIG
  • 191045Z 04002KT 9999 FEW050TCU 30/17 Q1020 NOSIG
  • 191015Z 06002KT 9999 FEW046 30/18 Q1020 NOSIG
  • 190945Z 03003KT 9999 FEW043 29/19 Q1020 NOSIG

TAF TAF LHSM
Valide du 19 à 12h jusqu'au 19 à 21h UTC


191115Z 1912/1921 31005KT CAVOK
PROB40
TEMPO 1912/1918 VRB15G30KT 4000 TSRA SCT045CB BKN060
Pas de NOTAMs connus pour ce terrain.



MET'MAP, la Météo Aéronautique d'un coup d'oeil ! - Copyright ORBIFLY Décembre 2007 - Disclaimer

ORBIFLY MET'MAP TEAM :

Programmation & Développement : Alexandra Zaïnal
Conception & Développement : Baudouin d'Aumeries
Co-Programmation & Développement : Marc-Olivier Méhu
Soutien technique & logistique : Manuel Goepfert

Contact : metmap@orbifly.com




SOURCES & CREDITS :

   NOAA